Time;durP1;ratioP1;P1;durP2;ratioP2;P2;SDS_P1;SDS_P2;PMS_P1;PMS_P2;Temp;Humidity;BMP_temperature;BMP_pressure;BME280_temperature;BME280_humidity;BME280_pressure;Samples;Min_cycle;Max_cycle;Signal;HPM_P1;HPM_P2
2022/04/19 00:00:04;;;;;;;14.23;9.30;;;;;;;10.71;56.36;101391.47;5022562;28;20032;-91
2022/04/19 00:02:30;;;;;;;11.40;8.85;;;;;;;10.73;55.40;101390.53;5022715;28;20034;-91
2022/04/19 00:04:58;;;;;;;14.20;9.35;;;;;;;10.73;55.61;101381.72;5026045;28;20476;-91
2022/04/19 00:07:24;;;;;;;12.48;9.85;;;;;;;10.62;56.47;101381.19;5018110;28;20025;-92
2022/04/19 00:09:49;;;;;;;12.20;9.18;;;;;;;10.63;56.46;101381.16;5018975;28;20036;-91
2022/04/19 00:12:14;;;;;;;13.70;9.80;;;;;;;10.68;56.40;101381.03;5024426;28;20027;-91
2022/04/19 00:14:40;;;;;;;14.65;10.98;;;;;;;10.67;56.01;101381.91;5017467;28;20334;-90
2022/04/19 00:17:06;;;;;;;16.27;10.10;;;;;;;10.55;53.89;101380.53;5036654;28;20160;-89
2022/04/19 00:19:31;;;;;;;13.18;10.35;;;;;;;10.40;56.25;101379.25;5022110;28;20027;-91
2022/04/19 00:21:56;;;;;;;14.75;10.30;;;;;;;10.34;55.10;101382.03;5034013;28;20104;-91
2022/04/19 00:24:22;;;;;;;14.20;10.05;;;;;;;10.17;55.63;101371.97;5034035;28;20503;-90
2022/04/19 00:26:55;;;;;;;13.48;10.32;;;;;;;10.18;56.15;101373.69;5038214;28;20856;-91
2022/04/19 00:29:20;;;;;;;13.25;10.02;;;;;;;10.07;55.47;101370.53;5036080;28;20057;-91
2022/04/19 00:31:45;;;;;;;14.45;10.63;;;;;;;10.14;56.13;101374.69;5036202;28;20064;-91
2022/04/19 00:34:10;;;;;;;16.23;11.27;;;;;;;10.20;55.55;101377.13;5020323;28;20455;-91
2022/04/19 00:36:37;;;;;;;14.23;10.65;;;;;;;10.20;56.69;101369.22;5045602;28;20036;-90
2022/04/19 00:39:03;;;;;;;17.55;11.30;;;;;;;10.20;56.25;101371.00;5023377;28;20027;-91
2022/04/19 00:41:28;;;;;;;13.95;10.80;;;;;;;10.16;55.66;101364.94;5035591;28;20049;-91
2022/04/19 00:43:54;;;;;;;14.18;10.95;;;;;;;10.10;54.63;101361.63;5035531;28;20033;-90
2022/04/19 00:46:20;;;;;;;13.07;10.68;;;;;;;10.18;55.53;101370.19;5037235;28;20065;-89
2022/04/19 00:48:45;;;;;;;15.35;11.65;;;;;;;10.14;55.80;101361.47;5019623;28;20072;-91
2022/04/19 00:51:12;;;;;;;13.48;10.68;;;;;;;9.95;54.57;101355.03;5031898;28;20083;-91
2022/04/19 00:53:37;;;;;;;13.43;11.38;;;;;;;9.95;55.93;101370.88;5014130;28;20025;-92
2022/04/19 00:56:03;;;;;;;14.48;11.05;;;;;;;9.92;56.28;101355.97;5026114;28;20495;-92
2022/04/19 00:58:28;;;;;;;15.73;11.40;;;;;;;9.91;56.60;101363.94;5021716;28;20252;-92
2022/04/19 01:00:54;;;;;;;14.43;11.00;;;;;;;9.81;56.37;101362.47;5022612;28;20111;-92
2022/04/19 01:03:22;;;;;;;14.88;11.68;;;;;;;9.78;55.36;101367.84;5032558;28;20082;-90
2022/04/19 01:05:47;;;;;;;16.38;10.95;;;;;;;9.69;57.40;101369.81;5022600;28;20762;-90
2022/04/19 01:08:14;;;;;;;17.20;10.95;;;;;;;9.71;57.75;101361.88;5020937;28;20064;-92
2022/04/19 01:10:42;;;;;;;15.38;11.82;;;;;;;9.71;57.87;101368.03;5037345;28;20031;-90
2022/04/19 01:13:17;;;;;;;15.57;11.52;;;;;;;9.49;55.74;101351.03;5038631;28;20021;-91
2022/04/19 01:15:47;;;;;;;13.52;11.40;;;;;;;9.32;58.43;101366.44;5018823;28;20540;-91
2022/04/19 01:18:13;;;;;;;14.05;11.10;;;;;;;9.29;56.79;101363.91;5038733;28;20040;-90
2022/04/19 01:20:39;;;;;;;17.27;12.73;;;;;;;9.23;55.61;101357.00;5020527;28;20087;-91
2022/04/19 01:23:05;;;;;;;17.25;13.57;;;;;;;9.00;55.70;101355.00;5036408;28;20451;-91
2022/04/19 01:25:30;;;;;;;19.50;13.65;;;;;;;8.74;57.05;101360.91;5037811;28;20033;-91
2022/04/19 01:27:55;;;;;;;16.83;11.80;;;;;;;8.65;59.72;101356.72;5031229;28;20504;-89
2022/04/19 01:30:21;;;;;;;14.65;11.93;;;;;;;8.70;58.15;101348.69;5036456;28;20025;-91
2022/04/19 01:32:46;;;;;;;14.32;12.15;;;;;;;8.78;58.75;101348.50;5032763;28;20078;-91
2022/04/19 01:35:13;;;;;;;16.30;12.50;;;;;;;9.02;58.37;101355.81;5022508;28;20017;-89
2022/04/19 01:37:40;;;;;;;17.75;12.43;;;;;;;9.09;58.92;101356.50;5034656;28;20040;-92
2022/04/19 01:40:19;;;;;;;15.40;11.25;;;;;;;9.03;58.18;101344.34;5038647;28;20041;-92
2022/04/19 01:42:46;;;;;;;15.98;12.52;;;;;;;8.93;58.89;101345.50;5032253;28;20043;-92
2022/04/19 01:45:16;;;;;;;16.08;12.35;;;;;;;8.89;57.85;101349.97;5022658;28;20125;-91
2022/04/19 01:47:42;;;;;;;17.73;13.40;;;;;;;8.67;57.47;101344.38;5023159;28;20078;-92
2022/04/19 01:50:09;;;;;;;16.75;12.40;;;;;;;8.62;58.33;101332.19;5021374;28;20029;-91
2022/04/19 01:52:36;;;;;;;16.98;13.18;;;;;;;8.57;58.17;101337.56;5038478;28;20038;-91
2022/04/19 01:55:03;;;;;;;18.63;14.13;;;;;;;8.53;59.03;101329.78;5022136;28;20108;-90
2022/04/19 01:57:28;;;;;;;17.60;13.30;;;;;;;8.53;59.73;101335.91;5038013;28;20043;-91
2022/04/19 01:59:54;;;;;;;16.83;11.98;;;;;;;8.50;61.06;101332.50;5037507;28;20021;-90
2022/04/19 02:02:19;;;;;;;14.73;12.02;;;;;;;8.57;61.12;101337.56;5024394;28;20048;-89
2022/04/19 02:04:44;;;;;;;19.20;12.00;;;;;;;8.65;60.53;101340.03;5018435;28;20029;-88
2022/04/19 02:07:10;;;;;;;14.52;11.57;;;;;;;8.77;59.89;101338.88;5020986;28;20029;-90
2022/04/19 02:09:35;;;;;;;17.63;12.82;;;;;;;8.84;58.46;101335.16;5027684;28;20745;-92
2022/04/19 02:12:00;;;;;;;14.43;11.75;;;;;;;8.82;59.91;101334.34;5020181;28;20114;-92
2022/04/19 02:14:26;;;;;;;22.30;13.05;;;;;;;8.84;60.54;101338.66;5036383;28;20029;-91
2022/04/19 02:16:53;;;;;;;15.25;11.88;;;;;;;8.85;60.90;101340.41;5037829;28;20041;-88
2022/04/19 02:19:18;;;;;;;17.08;13.07;;;;;;;8.85;61.02;101343.03;5034614;28;20626;-91
2022/04/19 02:21:45;;;;;;;17.38;13.00;;;;;;;8.75;60.79;101325.72;5020955;28;20021;-89
2022/04/19 02:24:10;;;;;;;16.98;12.80;;;;;;;8.76;60.91;101342.41;5030010;28;20040;-91
2022/04/19 02:26:35;;;;;;;16.20;13.35;;;;;;;8.54;61.41;101331.53;5035016;28;20032;-91
2022/04/19 02:29:01;;;;;;;17.08;13.57;;;;;;;8.48;61.64;101327.25;5038078;28;20642;-89
2022/04/19 02:31:27;;;;;;;18.90;14.23;;;;;;;8.44;61.62;101328.25;5018324;28;20025;-92
2022/04/19 02:33:52;;;;;;;19.33;14.43;;;;;;;8.49;61.58;101329.00;5037082;28;20025;-92
2022/04/19 02:36:17;;;;;;;23.13;13.93;;;;;;;8.56;60.64;101325.31;5022606;28;20083;-88
2022/04/19 02:38:43;;;;;;;20.02;12.25;;;;;;;8.64;60.94;101326.00;5036565;28;20471;-90
2022/04/19 02:41:08;;;;;;;17.55;12.05;;;;;;;8.53;59.09;101321.88;5033140;28;20040;-92
2022/04/19 02:43:34;;;;;;;16.10;12.52;;;;;;;8.32;59.01;101333.75;5021024;28;20036;-93
2022/04/19 02:45:59;;;;;;;18.02;13.57;;;;;;;8.04;59.57;101315.94;5021014;28;20029;-89
2022/04/19 02:48:24;;;;;;;17.50;12.95;;;;;;;7.86;60.74;101329.50;5014402;28;20123;-92
2022/04/19 02:50:50;;;;;;;17.67;13.32;;;;;;;7.75;62.01;101327.09;5021453;28;20090;-92
2022/04/19 02:53:15;;;;;;;17.42;14.15;;;;;;;7.55;62.92;101323.97;5034967;28;20400;-91
2022/04/19 02:55:41;;;;;;;20.88;14.05;;;;;;;7.48;62.51;101325.00;5040610;28;20159;-88
2022/04/19 02:58:09;;;;;;;18.23;13.23;;;;;;;7.27;62.62;101308.72;5018704;28;20492;-91
2022/04/19 03:00:34;;;;;;;19.77;14.35;;;;;;;7.33;63.79;101323.56;5018385;28;20033;-92
2022/04/19 03:03:00;;;;;;;21.65;14.95;;;;;;;7.47;65.57;101318.03;5020881;28;20033;-92
2022/04/19 03:05:25;;;;;;;17.77;14.20;;;;;;;7.64;64.23;101319.41;5020184;28;20393;-89
2022/04/19 03:07:50;;;;;;;21.23;14.82;;;;;;;7.86;62.54;101321.59;5021620;28;20030;-92
2022/04/19 03:10:16;;;;;;;21.92;15.77;;;;;;;7.98;62.97;101323.97;5019217;28;20029;-90
2022/04/19 03:12:43;;;;;;;21.15;15.93;;;;;;;8.01;62.32;101318.63;5020946;28;20645;-90
2022/04/19 03:15:11;;;;;;;22.45;16.55;;;;;;;7.99;62.75;101317.81;5016249;28;20140;-90
2022/04/19 03:17:37;;;;;;;22.17;15.98;;;;;;;8.03;61.79;101318.63;5036991;28;20036;-88
2022/04/19 03:20:03;;;;;;;20.60;15.38;;;;;;;7.92;60.57;101311.78;5018840;28;20047;-91
2022/04/19 03:27:41;;;;;;;20.67;16.02;;;;;;;7.74;60.88;101313.94;5037225;28;20508;-90
2022/04/19 03:27:57;;;;;;;20.48;15.20;;;;;;;7.76;63.28;101312.16;5037720;28;20056;-91
2022/04/19 03:30:22;;;;;;;20.17;15.10;;;;;;;7.75;63.19;101313.94;5038968;28;20032;-92
2022/04/19 03:32:52;;;;;;;21.40;14.48;;;;;;;7.84;62.66;101323.41;5034249;28;20112;-91
2022/04/19 03:35:18;;;;;;;25.33;16.38;;;;;;;7.80;63.80;101321.75;5037544;28;20031;-93
2022/04/19 03:37:44;;;;;;;24.85;16.67;;;;;;;7.76;63.65;101315.66;5022450;28;20029;-91
2022/04/19 03:40:10;;;;;;;21.60;15.43;;;;;;;7.75;62.37;101307.81;5025299;28;20435;-91
2022/04/19 03:42:35;;;;;;;20.85;15.93;;;;;;;7.66;62.58;101312.34;5044369;28;20488;-91
2022/04/19 03:45:00;;;;;;;19.15;14.50;;;;;;;7.67;62.44;101326.38;5040588;28;20116;-90
2022/04/19 03:47:25;;;;;;;18.40;14.73;;;;;;;7.57;60.80;101303.78;5044186;28;20086;-89
2022/04/19 03:49:51;;;;;;;20.48;15.05;;;;;;;7.60;60.74;101327.38;5039990;28;20519;-90
2022/04/19 03:52:16;;;;;;;20.15;14.73;;;;;;;7.53;62.71;101315.25;5041610;28;20419;-91
2022/04/19 03:54:41;;;;;;;21.08;14.55;;;;;;;7.56;61.80;101318.72;5023419;28;20037;-91
2022/04/19 03:57:08;;;;;;;20.13;15.10;;;;;;;7.51;62.74;101315.31;5037885;28;20037;-91
2022/04/19 03:59:38;;;;;;;16.80;13.68;;;;;;;7.44;61.41;101312.81;5037545;28;20060;-91
2022/04/19 04:02:06;;;;;;;16.27;13.18;;;;;;;7.41;61.24;101316.34;5021131;28;20024;-90
2022/04/19 04:04:34;;;;;;;19.08;13.18;;;;;;;7.35;61.37;101319.97;5037136;28;20033;-89
2022/04/19 04:07:04;;;;;;;17.58;13.18;;;;;;;7.21;61.93;101323.78;5035611;28;20091;-91
2022/04/19 04:09:32;;;;;;;19.10;13.82;;;;;;;6.99;63.58;101318.88;5039021;28;20116;-92
2022/04/19 04:12:06;;;;;;;17.80;13.60;;;;;;;6.95;63.70;101326.84;5024198;28;20033;-92
2022/04/19 04:14:35;;;;;;;19.60;13.77;;;;;;;6.85;64.58;101326.16;5020443;28;20477;-92
2022/04/19 04:17:00;;;;;;;19.50;13.27;;;;;;;6.83;65.10;101315.66;5025906;28;20037;-92
2022/04/19 04:19:26;;;;;;;18.17;13.63;;;;;;;6.76;65.02;101324.56;5038042;28;20031;-90
2022/04/19 04:21:51;;;;;;;19.55;13.88;;;;;;;6.70;66.41;101311.50;5038130;28;20041;-91
2022/04/19 04:24:17;;;;;;;24.45;14.13;;;;;;;6.86;66.36;101322.66;5023807;28;20025;-92
2022/04/19 04:26:42;;;;;;;20.15;14.25;;;;;;;6.93;65.40;101316.38;5026177;28;20093;-90
2022/04/19 04:29:09;;;;;;;18.30;14.52;;;;;;;7.09;65.51;101327.50;5036949;28;20515;-89
2022/04/19 04:31:34;;;;;;;19.95;13.15;;;;;;;7.09;65.23;101323.13;5041959;28;20036;-91
2022/04/19 04:33:59;;;;;;;17.85;13.32;;;;;;;7.08;64.99;101321.34;5035796;28;20111;-91
2022/04/19 04:36:25;;;;;;;19.20;13.77;;;;;;;7.08;64.62;101333.63;5022972;28;20387;-90
2022/04/19 04:38:50;;;;;;;20.90;14.23;;;;;;;7.05;65.48;101337.22;5036946;28;20033;-92
2022/04/19 04:41:15;;;;;;;20.02;13.60;;;;;;;6.99;65.69;101328.53;5023799;28;20021;-91
2022/04/19 04:43:41;;;;;;;19.23;14.77;;;;;;;7.02;65.46;101333.75;5021218;28;20037;-92
2022/04/19 04:51:35;;;;;;;20.67;14.00;;;;;;;6.89;65.88;101339.22;5038490;28;20214;-93
2022/04/19 04:54:00;;;;;;;20.98;13.90;;;;;;;6.92;64.01;101346.19;5034712;28;20103;-92
2022/04/19 04:56:26;;;;;;;16.92;13.55;;;;;;;6.86;63.96;101343.69;5035473;28;20036;-93
2022/04/19 04:58:51;;;;;;;18.63;14.40;;;;;;;6.86;65.89;101341.03;5020597;28;20029;-92
2022/04/19 05:01:16;;;;;;;20.77;14.60;;;;;;;6.87;65.68;101338.38;5033691;28;20443;-92
2022/04/19 05:03:41;;;;;;;17.58;13.95;;;;;;;6.83;64.60;101343.72;5022657;28;20119;-92
2022/04/19 05:06:07;;;;;;;19.05;13.98;;;;;;;6.79;65.17;101342.88;5023800;28;20399;-92
2022/04/19 05:08:32;;;;;;;24.25;13.68;;;;;;;6.82;65.70;101342.84;5034108;28;20551;-93
2022/04/19 05:10:57;;;;;;;19.55;13.88;;;;;;;6.96;65.81;101345.25;5022928;28;20234;-92
2022/04/19 05:13:23;;;;;;;20.50;14.48;;;;;;;7.02;65.55;101349.53;5024623;28;20025;-89
2022/04/19 05:15:48;;;;;;;18.67;13.73;;;;;;;6.97;65.33;101332.97;5019976;28;20043;-91
2022/04/19 05:18:14;;;;;;;18.20;13.00;;;;;;;7.00;65.70;101339.03;5034488;28;20081;-91
2022/04/19 05:20:41;;;;;;;18.67;14.15;;;;;;;7.12;64.56;101349.31;5021739;28;20025;-93
2022/04/19 05:23:06;;;;;;;18.92;13.57;;;;;;;7.12;65.64;101351.97;5036890;28;20125;-90
2022/04/19 05:25:31;;;;;;;21.40;13.93;;;;;;;7.24;65.67;101353.53;5032395;28;20112;-91
2022/04/19 05:27:57;;;;;;;19.90;14.25;;;;;;;7.30;65.30;101345.50;5034408;28;20036;-92
2022/04/19 05:30:22;;;;;;;16.73;12.45;;;;;;;7.50;64.32;101347.75;5021674;28;20041;-93
2022/04/19 05:32:48;;;;;;;17.92;13.07;;;;;;;7.61;63.84;101344.94;5038778;28;20026;-93
2022/04/19 05:35:13;;;;;;;18.95;13.38;;;;;;;7.73;63.77;101347.28;5040128;28;20025;-89
2022/04/19 05:37:39;;;;;;;20.38;13.65;;;;;;;7.86;63.68;101338.25;5019803;28;20038;-92
2022/04/19 05:40:05;;;;;;;20.90;13.60;;;;;;;8.02;62.87;101337.91;5037008;28;20498;-92
2022/04/19 05:42:30;;;;;;;21.63;13.38;;;;;;;8.18;62.39;101349.88;5032115;28;20055;-92
2022/04/19 05:44:55;;;;;;;21.40;13.50;;;;;;;8.27;62.52;101347.03;5038827;28;20025;-93
2022/04/19 05:47:21;;;;;;;22.85;13.30;;;;;;;8.36;60.82;101353.88;5034618;28;20507;-91
2022/04/19 05:49:46;;;;;;;19.90;13.25;;;;;;;8.52;60.70;101344.72;5020955;28;20052;-92
2022/04/19 05:52:13;;;;;;;19.60;12.50;;;;;;;8.67;59.48;101341.75;5023255;28;20033;-92
2022/04/19 05:54:38;;;;;;;23.00;12.38;;;;;;;8.75;61.08;101330.97;5021717;28;20120;-89
2022/04/19 05:57:04;;;;;;;19.73;13.23;;;;;;;8.87;61.74;101345.66;5018688;28;20124;-93
2022/04/19 05:59:29;;;;;;;20.63;13.75;;;;;;;8.93;60.45;101338.44;5036919;28;20088;-93
2022/04/19 06:04:54;;;;;;;20.90;13.35;;;;;;;9.25;58.86;101354.34;5037257;28;20040;-89
2022/04/19 06:07:23;;;;;;;19.98;12.80;;;;;;;9.32;60.79;101347.97;5018133;28;20025;-92
2022/04/19 06:09:49;;;;;;;21.25;12.60;;;;;;;9.43;58.99;101356.50;5016981;28;20469;-90
2022/04/19 06:12:15;;;;;;;23.92;12.73;;;;;;;9.55;57.81;101361.41;5035104;28;20033;-92
2022/04/19 06:14:40;;;;;;;19.20;13.60;;;;;;;9.65;60.58;101362.91;5035211;28;20037;-92
2022/04/19 06:17:05;;;;;;;20.88;12.82;;;;;;;9.71;60.54;101362.75;5029498;28;20487;-90
2022/04/19 06:19:31;;;;;;;18.40;12.65;;;;;;;9.81;56.47;101358.06;5036989;28;20563;-92
2022/04/19 06:21:57;;;;;;;20.63;12.35;;;;;;;9.96;56.93;101360.25;5035709;28;20502;-93
2022/04/19 06:24:22;;;;;;;17.08;11.20;;;;;;;10.04;55.40;101356.53;5020122;28;20495;-90
2022/04/19 06:26:48;;;;;;;20.73;13.00;;;;;;;10.23;54.56;101374.41;5020768;28;20095;-92
2022/04/19 06:29:14;;;;;;;19.58;12.23;;;;;;;10.34;54.73;101368.84;5023781;28;20034;-91
2022/04/19 06:31:43;;;;;;;18.85;11.90;;;;;;;10.50;53.42;101363.97;5022060;28;20575;-92
2022/04/19 06:34:09;;;;;;;22.50;11.98;;;;;;;10.60;54.43;101357.47;5016707;28;20033;-90
2022/04/19 06:36:34;;;;;;;18.60;11.73;;;;;;;10.75;53.69;101365.81;5020192;28;20033;-90
2022/04/19 06:38:59;;;;;;;21.05;12.25;;;;;;;10.95;52.94;101371.28;5031861;28;20514;-90
2022/04/19 06:41:25;;;;;;;17.55;12.15;;;;;;;11.05;53.75;101367.44;5019205;28;20860;-91
2022/04/19 06:43:50;;;;;;;18.33;11.93;;;;;;;11.17;53.02;101371.44;5018936;28;20477;-90
2022/04/19 06:46:17;;;;;;;21.48;12.05;;;;;;;11.30;50.88;101367.47;5019522;28;20029;-89
2022/04/19 06:48:42;;;;;;;19.33;11.65;;;;;;;11.42;50.13;101367.06;5032374;28;20021;-89
2022/04/19 06:51:09;;;;;;;17.10;11.27;;;;;;;11.62;49.39;101368.97;5041078;28;20025;-91
2022/04/19 06:53:35;;;;;;;17.40;10.60;;;;;;;11.74;47.80;101365.88;5035211;28;20339;-91
2022/04/19 06:56:00;;;;;;;18.00;11.23;;;;;;;11.81;49.90;101366.53;5021532;28;20066;-91
2022/04/19 06:58:26;;;;;;;19.80;11.38;;;;;;;11.96;50.27;101373.06;5017583;28;20557;-93
2022/04/19 07:00:51;;;;;;;20.73;11.15;;;;;;;12.09;50.23;101368.19;5019122;28;20500;-91
2022/04/19 07:03:16;;;;;;;18.85;12.15;;;;;;;12.30;51.57;101374.44;5017191;28;20033;-91
2022/04/19 07:05:42;;;;;;;18.17;11.43;;;;;;;12.45;50.22;101373.81;5019881;28;20491;-90
2022/04/19 07:08:07;;;;;;;20.90;11.77;;;;;;;12.58;48.39;101371.56;5017346;28;20063;-91
2022/04/19 07:10:36;;;;;;;19.45;11.68;;;;;;;12.77;48.98;101381.34;5037104;28;20789;-89
2022/04/19 07:13:03;;;;;;;18.20;10.75;;;;;;;12.92;48.52;101376.38;5036497;28;20040;-89
2022/04/19 07:15:28;;;;;;;20.15;11.65;;;;;;;13.10;48.87;101380.03;5033682;28;20024;-89
2022/04/19 07:17:54;;;;;;;17.05;11.50;;;;;;;13.21;47.21;101376.00;5018698;28;20530;-91
2022/04/19 07:28:35;;;;;;;16.67;10.40;;;;;;;13.84;46.87;101383.91;5037148;28;20072;-90
2022/04/19 07:31:04;;;;;;;19.80;11.70;;;;;;;14.00;47.42;101384.94;5034830;28;20025;-92
2022/04/19 07:33:31;;;;;;;20.20;10.85;;;;;;;14.17;45.71;101377.97;5032750;28;20046;-90
2022/04/19 07:35:57;;;;;;;16.98;10.10;;;;;;;14.32;46.11;101382.59;5023155;28;20013;-90
2022/04/19 07:38:23;;;;;;;17.40;11.07;;;;;;;14.42;45.62;101389.19;5033228;28;20107;-90
2022/04/19 07:40:48;;;;;;;16.65;11.13;;;;;;;14.61;44.02;101391.88;5015513;28;20021;-91
2022/04/19 07:43:14;;;;;;;15.90;10.02;;;;;;;14.89;45.18;101394.06;5022994;28;20053;-91
2022/04/19 07:45:40;;;;;;;16.52;10.05;;;;;;;15.05;43.80;101384.34;5019715;28;20464;-91
2022/04/19 07:48:06;;;;;;;16.67;9.30;;;;;;;15.43;44.09;101394.84;5031841;28;20036;-90
2022/04/19 07:50:34;;;;;;;15.75;10.02;;;;;;;15.83;43.17;101387.50;5034451;28;20033;-90
2022/04/19 07:53:00;;;;;;;17.25;10.52;;;;;;;16.14;40.66;101386.69;5023334;28;20037;-91
2022/04/19 07:55:25;;;;;;;17.05;9.75;;;;;;;16.40;40.78;101387.91;5019264;28;20083;-91
2022/04/19 07:57:51;;;;;;;15.15;9.88;;;;;;;16.67;38.69;101388.16;5021750;28;20060;-91
2022/04/19 08:00:17;;;;;;;15.20;9.88;;;;;;;16.95;38.96;101394.63;5020471;28;20028;-91
2022/04/19 08:02:43;;;;;;;14.73;9.23;;;;;;;17.20;39.44;101397.56;5028387;28;20044;-91
2022/04/19 08:05:09;;;;;;;17.10;9.18;;;;;;;17.52;37.16;101395.66;5014325;28;20400;-91
2022/04/19 08:07:35;;;;;;;14.75;9.20;;;;;;;17.75;36.08;101391.63;5022936;28;20053;-92
2022/04/19 08:10:00;;;;;;;16.60;10.00;;;;;;;18.00;36.24;101391.00;5018620;28;20037;-91
2022/04/19 08:12:26;;;;;;;17.58;9.43;;;;;;;18.27;36.38;101387.50;5021351;28;20040;-91
2022/04/19 08:14:52;;;;;;;15.55;10.05;;;;;;;18.47;35.10;101392.47;5036346;28;20029;-90
2022/04/19 08:17:17;;;;;;;17.02;9.65;;;;;;;18.74;34.87;101391.63;5024629;28;20053;-90
2022/04/19 08:19:43;;;;;;;15.30;8.70;;;;;;;19.06;34.18;101382.31;5020918;28;20112;-92
2022/04/19 08:22:08;;;;;;;25.15;9.43;;;;;;;19.29;33.40;101386.13;5021785;28;20033;-90
2022/04/19 08:24:34;;;;;;;25.55;8.95;;;;;;;19.53;32.19;101372.84;5021582;28;20036;-92
2022/04/19 08:26:59;;;;;;;14.18;8.10;;;;;;;20.05;31.51;101373.72;5025508;28;20039;-91
2022/04/19 08:29:25;;;;;;;13.98;8.30;;;;;;;20.49;31.78;101378.63;5040676;28;20028;-93
2022/04/19 08:31:51;;;;;;;12.30;8.23;;;;;;;20.74;31.11;101377.66;5038009;28;20049;-93
2022/04/19 08:34:16;;;;;;;14.02;8.10;;;;;;;20.76;29.55;101369.50;5024282;28;21414;-92
2022/04/19 08:36:42;;;;;;;13.07;7.10;;;;;;;21.09;31.34;101361.56;5025132;28;20033;-92
2022/04/19 08:39:09;;;;;;;14.85;7.97;;;;;;;21.53;30.79;101373.44;5016910;28;20021;-94
2022/04/19 08:41:36;;;;;;;12.93;8.30;;;;;;;21.84;28.59;101371.06;5021037;28;20595;-94
2022/04/19 08:44:01;;;;;;;13.18;7.65;;;;;;;21.72;28.57;101366.63;5024927;28;20116;-94
2022/04/19 08:46:27;;;;;;;15.25;8.85;;;;;;;21.86;28.17;101374.47;5022253;28;20579;-91
2022/04/19 08:48:59;;;;;;;12.60;8.45;;;;;;;22.04;28.82;101378.38;5033134;28;20021;-93
2022/04/19 08:51:27;;;;;;;13.25;7.95;;;;;;;22.39;28.25;101372.91;5033305;28;20033;-92
2022/04/19 08:59:28;;;;;;;13.98;8.40;;;;;;;22.57;28.25;101378.63;5036224;28;20412;-93
2022/04/19 09:01:53;;;;;;;15.27;8.23;;;;;;;23.22;28.09;101374.09;5033283;28;20025;-92
2022/04/19 09:04:21;;;;;;;11.45;7.70;;;;;;;23.93;27.13;101372.44;5034400;28;20095;-92
2022/04/19 09:06:51;;;;;;;15.88;8.13;;;;;;;24.38;26.17;101371.22;5024730;28;20277;-93
2022/04/19 09:09:20;;;;;;;11.45;7.13;;;;;;;24.34;25.13;101361.63;5032632;28;20068;-93
2022/04/19 09:11:45;;;;;;;11.55;6.80;;;;;;;24.33;25.36;101362.63;5035424;28;20524;-93
2022/04/19 09:14:10;;;;;;;10.38;6.07;;;;;;;24.77;24.02;101355.94;5034709;28;20064;-94
2022/04/19 09:16:36;;;;;;;9.38;6.15;;;;;;;24.97;24.02;101355.94;5040516;28;20033;-92
2022/04/19 09:19:01;;;;;;;12.45;6.45;;;;;;;25.31;24.95;101356.34;5034284;28;20064;-91
2022/04/19 09:21:40;;;;;;;12.52;6.00;;;;;;;25.55;24.43;101354.00;5023752;28;20037;-92
2022/04/19 09:24:26;;;;;;;7.72;4.95;;;;;;;24.96;24.45;101362.34;5024597;28;20171;-94
2022/04/19 09:26:52;;;;;;;6.55;4.50;;;;;;;25.09;23.39;101349.41;5033392;28;20040;-92
2022/04/19 09:29:25;;;;;;;5.95;4.55;;;;;;;25.43;23.90;101355.19;5023957;28;20393;-92
2022/04/19 09:31:54;;;;;;;7.93;3.85;;;;;;;25.62;22.16;101354.31;5035320;28;20082;-96
2022/04/19 09:34:23;;;;;;;8.65;4.53;;;;;;;25.77;23.70;101362.84;5016968;28;20032;-90
2022/04/19 09:36:53;;;;;;;8.80;4.70;;;;;;;25.91;22.25;101355.06;5034370;28;20033;-91
2022/04/19 09:39:25;;;;;;;9.15;3.88;;;;;;;25.25;22.32;101344.25;5035053;28;20051;-92
2022/04/19 09:42:00;;;;;;;6.72;4.72;;;;;;;25.47;23.72;101345.78;5037256;28;20049;-91
2022/04/19 09:44:26;;;;;;;8.77;4.90;;;;;;;25.36;23.42;101337.81;5012607;28;20722;-94
2022/04/19 09:47:04;;;;;;;7.55;4.93;;;;;;;25.71;22.87;101339.88;5019037;28;20109;-92
2022/04/19 09:49:47;;;;;;;9.70;4.55;;;;;;;25.87;22.90;101347.38;5032671;28;20038;-93
2022/04/19 09:52:36;;;;;;;7.05;3.97;;;;;;;26.15;22.44;101338.28;5038391;28;20025;-93
2022/04/19 09:55:04;;;;;;;8.43;5.07;;;;;;;26.30;21.56;101337.75;5021156;28;20501;-92
2022/04/19 09:57:36;;;;;;;9.15;4.85;;;;;;;26.23;21.91;101337.53;5038958;28;20029;-92
2022/04/19 10:00:04;;;;;;;8.02;5.28;;;;;;;25.90;21.63;101342.53;5038218;28;20148;-92
2022/04/19 10:08:11;;;;;;;7.25;4.72;;;;;;;26.15;22.19;101332.84;5030932;28;20048;-93
2022/04/19 10:10:37;;;;;;;11.23;4.82;;;;;;;26.39;21.69;101326.00;5035533;28;20612;-92
2022/04/19 10:13:03;;;;;;;7.15;4.85;;;;;;;26.11;22.75;101341.44;5038286;28;20032;-94
2022/04/19 10:15:31;;;;;;;7.43;4.93;;;;;;;26.17;23.11;101344.41;5035210;28;20154;-92
2022/04/19 10:17:57;;;;;;;10.13;4.63;;;;;;;26.23;22.29;101334.81;5032015;28;20028;-93
2022/04/19 10:20:31;;;;;;;10.02;5.70;;;;;;;26.18;22.88;101345.25;5035966;28;20033;-92
2022/04/19 10:23:02;;;;;;;9.13;5.53;;;;;;;25.70;21.68;101335.47;5019186;28;20025;-92
2022/04/19 10:25:41;;;;;;;8.68;5.82;;;;;;;26.01;23.16;101340.63;5036856;28;20067;-92
2022/04/19 10:28:08;;;;;;;7.45;5.28;;;;;;;26.33;23.71;101337.47;5031889;28;20480;-92
2022/04/19 10:30:36;;;;;;;9.60;5.60;;;;;;;26.41;23.19;101335.72;5034001;28;20084;-93
2022/04/19 10:33:01;;;;;;;12.23;6.40;;;;;;;26.35;21.87;101335.47;5034382;28;20037;-94
2022/04/19 10:35:26;;;;;;;10.40;5.97;;;;;;;26.36;23.01;101332.59;5019981;28;20460;-95
2022/04/19 10:38:20;;;;;;;8.25;5.57;;;;;;;26.62;22.73;101338.16;5021130;28;20199;-92
2022/04/19 10:40:53;;;;;;;8.43;5.45;;;;;;;26.66;22.18;101330.56;5038902;28;20029;-94
2022/04/19 10:43:19;;;;;;;9.63;5.88;;;;;;;26.27;21.40;101327.25;5026245;28;20064;-93
2022/04/19 10:45:47;;;;;;;8.95;5.65;;;;;;;26.13;23.41;101324.03;5035617;28;20552;-91
2022/04/19 10:48:14;;;;;;;7.25;5.45;;;;;;;26.39;22.14;101328.72;5022604;28;20033;-92
2022/04/19 10:50:40;;;;;;;8.98;4.47;;;;;;;26.36;22.27;101331.75;5036629;28;20613;-93
2022/04/19 10:53:07;;;;;;;7.75;4.47;;;;;;;26.14;21.37;101327.59;5039721;28;20056;-93
2022/04/19 10:55:38;;;;;;;8.82;4.88;;;;;;;25.89;22.24;101321.88;5033370;28;20069;-94
2022/04/19 10:58:09;;;;;;;9.77;5.18;;;;;;;26.08;23.02;101325.50;5033591;28;20547;-94
2022/04/19 11:00:34;;;;;;;8.27;5.30;;;;;;;26.06;21.70;101320.19;5020504;28;20029;-92
2022/04/19 11:03:01;;;;;;;9.97;5.37;;;;;;;26.02;22.16;101310.69;5033782;28;20037;-92
2022/04/19 11:05:44;;;;;;;10.52;5.35;;;;;;;26.23;23.10;101318.56;5032351;28;20291;-92
2022/04/19 11:08:22;;;;;;;9.40;5.38;;;;;;;26.56;22.58;101313.50;5024491;28;20526;-93
2022/04/19 11:10:48;;;;;;;7.25;4.40;;;;;;;26.44;20.65;101310.19;5030014;28;20047;-92
2022/04/19 11:13:14;;;;;;;11.82;4.85;;;;;;;26.05;22.17;101307.66;5020902;28;20511;-92
2022/04/19 11:15:41;;;;;;;7.60;5.32;;;;;;;25.86;21.61;101294.22;5019979;28;20021;-92
2022/04/19 11:18:33;;;;;;;7.80;5.60;;;;;;;25.83;21.55;101294.50;5020331;28;20427;-91
2022/04/19 11:21:01;;;;;;;10.23;5.67;;;;;;;25.69;22.63;101302.13;5037838;28;20025;-93
2022/04/19 11:23:28;;;;;;;8.40;5.35;;;;;;;25.89;21.85;101300.19;5030714;28;20043;-92
2022/04/19 11:25:54;;;;;;;10.35;6.03;;;;;;;26.37;21.27;101301.75;5035899;28;20098;-92
2022/04/19 11:28:30;;;;;;;9.00;5.22;;;;;;;26.52;19.92;101295.84;5021379;28;20033;-92
2022/04/19 11:30:55;;;;;;;8.65;5.47;;;;;;;26.52;19.97;101293.97;5039197;28;20496;-92
2022/04/19 11:33:22;;;;;;;7.53;4.77;;;;;;;26.30;21.60;101295.25;5034333;28;20087;-92
2022/04/19 11:36:02;;;;;;;6.28;4.35;;;;;;;26.49;20.07;101291.59;5033657;28;20045;-93
2022/04/19 11:38:34;;;;;;;9.00;5.03;;;;;;;26.34;20.02;101285.78;5018597;28;20599;-94
2022/04/19 11:46:45;;;;;;;6.65;4.00;;;;;;;26.98;20.98;101289.31;5041790;28;20102;-93
2022/04/19 11:49:16;;;;;;;10.77;5.13;;;;;;;27.08;20.11;101284.66;5024459;28;20026;-93
2022/04/19 11:51:46;;;;;;;12.55;5.28;;;;;;;27.30;20.67;101291.44;5037355;28;20845;-94